createdAt,value
2019-03-26T00:02:33.978Z,99.90
2019-03-26T00:07:26.852Z,99.90
2019-03-26T00:12:18.552Z,99.90
2019-03-26T00:17:12.664Z,99.90
2019-03-26T00:22:06.137Z,99.90
2019-03-26T00:26:57.999Z,99.90
2019-03-26T00:31:51.981Z,99.90
2019-03-26T00:36:43.950Z,99.90
2019-03-26T00:41:37.795Z,99.90
2019-03-26T00:46:31.346Z,99.90
2019-03-26T00:51:24.907Z,99.90
2019-03-26T00:56:18.449Z,99.90
2019-03-26T01:01:11.747Z,99.80
2019-03-26T01:06:03.158Z,99.70
2019-03-26T01:10:55.032Z,99.30
2019-03-26T01:15:46.976Z,99.30
2019-03-26T01:20:39.755Z,99.30
2019-03-26T01:25:31.618Z,99.40
2019-03-26T01:30:23.750Z,99.60
2019-03-26T01:35:15.733Z,99.90
2019-03-26T01:40:07.520Z,99.90
2019-03-26T01:44:59.616Z,99.90
2019-03-26T01:49:51.450Z,99.90
2019-03-26T01:54:45.243Z,99.90
2019-03-26T01:59:36.556Z,99.90
2019-03-26T02:04:28.398Z,99.90
2019-03-26T02:09:20.447Z,99.90
2019-03-26T02:14:12.425Z,99.90
2019-03-26T02:19:04.170Z,99.90
2019-03-26T02:23:56.244Z,99.90
2019-03-26T02:28:51.014Z,99.90
2019-03-26T02:33:42.186Z,99.90
2019-03-26T02:38:33.897Z,98.60
2019-03-26T02:43:25.957Z,98.40
2019-03-26T02:48:17.703Z,98.60
2019-03-26T02:53:11.632Z,98.80
2019-03-26T02:58:03.165Z,99.10
2019-03-26T03:02:55.077Z,99.30
2019-03-26T03:07:46.970Z,99.70
2019-03-26T03:12:39.039Z,99.90
2019-03-26T03:17:30.784Z,99.90
2019-03-26T03:22:22.589Z,99.90
2019-03-26T03:27:14.262Z,99.90
2019-03-26T03:32:06.126Z,99.90
2019-03-26T03:36:58.025Z,99.90
2019-03-26T03:41:52.019Z,99.90
2019-03-26T03:46:43.528Z,99.90
2019-03-26T03:51:35.511Z,99.90
2019-03-26T03:56:27.502Z,99.90
2019-03-26T04:01:19.170Z,99.90
2019-03-26T04:06:11.622Z,99.90
2019-03-26T04:11:03.347Z,99.60
2019-03-26T04:15:55.175Z,99.60
2019-03-26T04:20:47.079Z,99.50
2019-03-26T04:25:38.996Z,99.70
2019-03-26T04:30:32.872Z,99.90
2019-03-26T04:35:24.165Z,99.90
2019-03-26T04:40:15.900Z,99.90
2019-03-26T04:45:07.769Z,99.90
2019-03-26T04:50:00.090Z,99.90
2019-03-26T04:54:52.055Z,99.90
2019-03-26T04:59:43.814Z,99.90
2019-03-26T05:04:35.759Z,99.90
2019-03-26T05:09:27.512Z,99.90
2019-03-26T05:14:19.522Z,99.90
2019-03-26T05:19:11.235Z,99.70
2019-03-26T05:24:03.349Z,99.30
2019-03-26T05:28:55.350Z,98.90
2019-03-26T05:33:47.237Z,99.10
2019-03-26T05:38:40.931Z,99.60
2019-03-26T05:43:32.272Z,99.80
2019-03-26T05:48:24.110Z,99.90
2019-03-26T05:53:16.041Z,99.90
2019-03-26T05:58:07.880Z,99.70
2019-03-26T06:02:59.669Z,99.30
2019-03-26T06:07:51.918Z,99.00
2019-03-26T06:12:43.858Z,98.00
2019-03-26T06:17:36.919Z,97.80
2019-03-26T06:22:28.361Z,97.30
2019-03-26T06:27:20.018Z,97.30
2019-03-26T06:32:15.128Z,97.10
2019-03-26T06:37:24.003Z,96.90
2019-03-26T06:42:16.105Z,96.90
2019-03-26T06:47:07.811Z,97.10
2019-03-26T06:51:59.709Z,96.80
2019-03-26T06:56:51.682Z,96.40
2019-03-26T07:01:43.802Z,96.40
2019-03-26T07:06:35.873Z,96.40
2019-03-26T07:11:29.805Z,96.30
2019-03-26T07:16:21.635Z,96.40
2019-03-26T07:21:13.522Z,96.60
2019-03-26T07:26:05.516Z,96.80
2019-03-26T07:30:57.420Z,97.40
2019-03-26T07:35:49.344Z,97.90
2019-03-26T07:40:41.335Z,97.60
2019-03-26T07:45:33.836Z,97.70
2019-03-26T07:50:25.718Z,98.30
2019-03-26T07:55:17.676Z,98.30
2019-03-26T08:00:09.563Z,99.00
2019-03-26T08:05:01.674Z,99.20
2019-03-26T08:09:53.530Z,99.60
2019-03-26T08:14:45.881Z,99.90
2019-03-26T08:19:38.253Z,99.90
2019-03-26T08:24:30.370Z,98.60
2019-03-26T08:29:22.615Z,96.70
2019-03-26T08:34:14.915Z,95.70
2019-03-26T08:39:06.938Z,96.00
2019-03-26T08:43:59.150Z,95.70
2019-03-26T08:48:51.347Z,94.30
2019-03-26T08:53:43.363Z,92.60
2019-03-26T08:58:35.650Z,94.10
2019-03-26T09:03:27.731Z,91.80
2019-03-26T09:08:26.574Z,91.90
2019-03-26T09:13:17.018Z,89.50
2019-03-26T09:18:08.589Z,87.90
2019-03-26T09:23:00.163Z,90.10
2019-03-26T09:27:53.678Z,91.60
2019-03-26T09:32:45.829Z,92.00
2019-03-26T09:37:37.665Z,92.40
2019-03-26T09:42:29.443Z,92.40
2019-03-26T09:47:23.599Z,92.90
2019-03-26T09:52:14.912Z,93.60
2019-03-26T09:57:06.693Z,94.60
2019-03-26T10:01:58.438Z,95.20
2019-03-26T10:06:50.454Z,97.80
2019-03-26T10:11:42.253Z,99.90
2019-03-26T10:16:34.242Z,99.90
2019-03-26T10:21:28.501Z,99.90
2019-03-26T10:26:20.250Z,99.90
2019-03-26T10:31:12.683Z,99.90
2019-03-26T10:36:05.075Z,99.90
2019-03-26T10:40:57.544Z,99.90
2019-03-26T10:45:50.449Z,98.40
2019-03-26T10:50:43.178Z,96.60
2019-03-26T10:55:35.646Z,94.40
2019-03-26T11:00:28.225Z,93.50
2019-03-26T11:05:20.996Z,92.00
2019-03-26T11:10:13.466Z,84.50
2019-03-26T11:15:07.997Z,79.90
2019-03-26T11:19:59.967Z,74.30
2019-03-26T11:24:52.361Z,69.50
2019-03-26T11:29:46.248Z,64.70
2019-03-26T11:34:37.446Z,65.20
2019-03-26T11:39:34.291Z,64.50
2019-03-26T11:44:25.218Z,69.80
2019-03-26T11:49:18.589Z,75.50
2019-03-26T11:54:10.117Z,79.90
2019-03-26T11:59:01.949Z,80.30
2019-03-26T12:03:53.952Z,82.70
2019-03-26T12:08:45.807Z,83.60
2019-03-26T12:13:37.592Z,82.90
2019-03-26T12:18:29.524Z,86.30
2019-03-26T12:23:21.453Z,89.00
2019-03-26T12:28:13.194Z,90.00
2019-03-26T12:33:05.244Z,89.60
2019-03-26T12:37:57.334Z,90.10
2019-03-26T12:42:49.439Z,90.30
2019-03-26T12:47:41.088Z,90.40
2019-03-26T12:52:33.358Z,90.60
2019-03-26T12:57:25.183Z,91.30
2019-03-26T13:02:17.593Z,92.00
2019-03-26T13:07:09.866Z,92.70
2019-03-26T13:12:02.098Z,92.80
2019-03-26T13:16:54.045Z,93.20
2019-03-26T13:21:46.014Z,93.50
2019-03-26T13:26:39.928Z,95.10
2019-03-26T13:31:31.458Z,96.90
2019-03-26T13:36:23.699Z,98.00
2019-03-26T13:41:15.937Z,98.10
2019-03-26T13:46:08.034Z,97.20
2019-03-26T13:51:02.373Z,96.70
2019-03-26T13:55:56.012Z,95.10
2019-03-26T14:00:47.364Z,95.00
2019-03-26T14:05:39.302Z,94.50
2019-03-26T14:10:42.236Z,94.40
2019-03-26T14:15:31.850Z,94.60
2019-03-26T14:20:24.004Z,94.60
2019-03-26T14:25:18.271Z,94.00
2019-03-26T14:30:09.712Z,93.70
2019-03-26T14:35:01.633Z,93.80
2019-03-26T14:39:55.820Z,94.00
2019-03-26T14:44:50.826Z,93.50
2019-03-26T14:49:42.125Z,93.50
2019-03-26T14:54:33.947Z,93.40
2019-03-26T14:59:26.113Z,93.70
2019-03-26T15:04:20.212Z,93.50
2019-03-26T15:09:11.746Z,92.90
2019-03-26T15:14:03.757Z,92.50
2019-03-26T15:18:55.774Z,91.80
2019-03-26T15:23:47.586Z,92.10
2019-03-26T15:28:41.783Z,91.70
2019-03-26T15:33:35.243Z,91.30
2019-03-26T15:38:26.578Z,91.30
2019-03-26T15:43:18.379Z,91.00
2019-03-26T15:48:10.482Z,91.40
2019-03-26T15:53:02.580Z,91.20
2019-03-26T15:57:54.781Z,91.30
2019-03-26T16:02:47.257Z,91.00
2019-03-26T16:07:39.505Z,90.70
2019-03-26T16:12:42.222Z,91.20
2019-03-26T16:17:32.088Z,90.60
2019-03-26T16:22:24.396Z,90.70
2019-03-26T16:27:16.490Z,91.30
2019-03-26T16:32:08.488Z,91.50
2019-03-26T16:37:01.390Z,91.00
2019-03-26T16:41:53.081Z,90.80
2019-03-26T16:46:44.818Z,90.70
2019-03-26T16:51:36.658Z,91.20
2019-03-26T16:56:28.582Z,91.30
2019-03-26T17:01:22.253Z,91.70
2019-03-26T17:06:13.769Z,92.00
2019-03-26T17:11:06.263Z,92.00
2019-03-26T17:15:58.434Z,92.20
2019-03-26T17:20:50.462Z,92.50
2019-03-26T17:25:42.194Z,92.70
2019-03-26T17:30:34.402Z,92.70
2019-03-26T17:35:26.368Z,93.20
2019-03-26T17:40:18.304Z,93.60
2019-03-26T17:45:10.553Z,93.80
2019-03-26T17:50:03.640Z,93.90
2019-03-26T17:54:55.533Z,94.40
2019-03-26T17:59:47.483Z,94.50
2019-03-26T18:04:39.604Z,94.50
2019-03-26T18:09:31.390Z,94.80
2019-03-26T18:14:23.621Z,95.00
2019-03-26T18:19:15.551Z,95.10
2019-03-26T18:24:07.283Z,95.50
2019-03-26T18:28:59.209Z,95.40
2019-03-26T18:33:51.519Z,95.20
2019-03-26T18:38:43.261Z,95.20
2019-03-26T18:43:35.324Z,95.60
2019-03-26T18:48:29.531Z,95.70
2019-03-26T18:53:21.164Z,96.00
2019-03-26T18:58:15.328Z,96.30
2019-03-26T19:03:06.712Z,96.50
2019-03-26T19:08:00.768Z,96.40
2019-03-26T19:12:58.232Z,96.50
2019-03-26T19:17:48.872Z,96.00
2019-03-26T19:22:40.866Z,95.80
2019-03-26T19:27:32.895Z,95.50
2019-03-26T19:32:27.016Z,95.10
2019-03-26T19:37:18.700Z,95.10
2019-03-26T19:42:10.533Z,95.30
2019-03-26T19:47:02.544Z,95.40
2019-03-26T19:51:54.396Z,95.70
2019-03-26T19:56:46.469Z,95.60
2019-03-26T20:01:38.296Z,95.60
2019-03-26T20:06:30.374Z,95.40
2019-03-26T20:11:22.023Z,95.20
2019-03-26T20:16:14.069Z,95.30
2019-03-26T20:21:05.953Z,95.40
2019-03-26T20:25:57.982Z,95.50
2019-03-26T20:30:49.787Z,95.60
2019-03-26T20:35:41.766Z,95.70
2019-03-26T20:40:33.726Z,95.90
2019-03-26T20:45:27.985Z,96.00
2019-03-26T20:50:19.279Z,96.10
2019-03-26T20:55:11.221Z,96.10
2019-03-26T21:00:03.107Z,96.20
2019-03-26T21:04:57.505Z,96.40
2019-03-26T21:09:51.287Z,96.50
2019-03-26T21:14:43.077Z,96.60
2019-03-26T21:19:34.890Z,96.90
2019-03-26T21:24:26.883Z,96.90
2019-03-26T21:29:18.871Z,97.10
2019-03-26T21:34:10.843Z,97.30
2019-03-26T21:39:02.958Z,97.50
2019-03-26T21:44:05.450Z,98.00
2019-03-26T21:48:55.430Z,98.20
2019-03-26T21:53:49.309Z,98.40
2019-03-26T21:58:40.986Z,98.70
2019-03-26T22:03:33.001Z,98.90
2019-03-26T22:08:25.240Z,99.00
2019-03-26T22:13:17.283Z,99.00
2019-03-26T22:18:09.233Z,99.00
2019-03-26T22:23:01.791Z,99.10
2019-03-26T22:27:57.090Z,99.20
2019-03-26T22:32:47.871Z,99.20
2019-03-26T22:37:41.766Z,99.40
2019-03-26T22:42:33.299Z,99.60
2019-03-26T22:47:27.272Z,99.90
2019-03-26T22:52:18.612Z,99.90
2019-03-26T22:57:10.527Z,99.90
2019-03-26T23:02:02.402Z,99.90
2019-03-26T23:06:54.397Z,99.90
2019-03-26T23:11:46.069Z,99.90
2019-03-26T23:16:37.976Z,99.90
2019-03-26T23:21:32.025Z,99.90
2019-03-26T23:26:23.526Z,99.90
2019-03-26T23:31:15.634Z,99.90
2019-03-26T23:36:07.580Z,99.90
2019-03-26T23:40:59.898Z,99.90
2019-03-26T23:45:51.626Z,99.90
2019-03-26T23:50:43.486Z,99.90
2019-03-26T23:55:35.255Z,99.90
